Time;durP1;ratioP1;P1;durP2;ratioP2;P2;SDS_P1;SDS_P2;PMS_P1;PMS_P2;Temp;Humidity;BMP_temperature;BMP_pressure;BME280_temperature;BME280_humidity;BME280_pressure;Samples;Min_cycle;Max_cycle;Signal;HPM_P1;HPM_P2
2022/05/09 00:00:43;;;;;;;12.63;4.60;;;;;;;;;;4938988;29;20043;-91
2022/05/09 00:03:09;;;;;;;16.33;4.32;;;;;;;;;;4938942;29;20073;-91
2022/05/09 00:05:35;;;;;;;18.55;3.90;;;;;;;;;;4954960;28;20081;-93
2022/05/09 00:08:01;;;;;;;13.00;4.05;;;;;;;;;;4938880;29;20035;-91
2022/05/09 00:10:27;;;;;;;13.65;4.47;;;;;;;;;;4938852;29;20054;-93
2022/05/09 00:12:57;;;;;;;14.70;4.38;;;;;;;;;;4954688;29;20085;-91
2022/05/09 00:15:23;;;;;;;16.90;4.00;;;;;;;;;;4937531;29;20047;-91
2022/05/09 00:17:49;;;;;;;14.60;3.92;;;;;;;;;;4938804;29;20565;-91
2022/05/09 00:20:20;;;;;;;13.63;4.57;;;;;;;;;;4938865;29;20047;-91
2022/05/09 00:22:55;;;;;;;14.90;4.85;;;;;;;;;;4938380;29;20509;-92
2022/05/09 00:25:23;;;;;;;14.25;4.70;;;;;;;;;;4954493;28;20402;-91
2022/05/09 00:27:50;;;;;;;18.65;4.97;;;;;;;;;;4938670;29;20118;-92
2022/05/09 00:30:16;;;;;;;15.60;3.90;;;;;;;;;;4954647;29;20467;-90
2022/05/09 00:32:42;;;;;;;12.20;3.40;;;;;;;;;;4954194;29;20434;-91
2022/05/09 00:35:09;;;;;;;16.17;4.22;;;;;;;;;;4954719;28;20051;-93
2022/05/09 00:37:37;;;;;;;12.18;3.83;;;;;;;;;;4955761;29;20106;-92
2022/05/09 00:40:08;;;;;;;15.25;4.40;;;;;;;;;;4954859;29;20406;-90
2022/05/09 00:42:40;;;;;;;9.88;3.88;;;;;;;;;;4942114;29;20047;-93
2022/05/09 00:45:08;;;;;;;11.65;3.63;;;;;;;;;;4939286;29;20051;-89
2022/05/09 00:47:34;;;;;;;14.60;3.85;;;;;;;;;;4938011;29;20476;-91
2022/05/09 00:50:02;;;;;;;14.00;4.55;;;;;;;;;;4954250;29;20047;-92
2022/05/09 00:52:36;;;;;;;12.40;3.97;;;;;;;;;;4938412;29;20146;-92
2022/05/09 00:55:03;;;;;;;13.30;4.03;;;;;;;;;;4954345;28;20094;-92
2022/05/09 00:57:50;;;;;;;13.98;3.92;;;;;;;;;;4938158;29;20124;-92
2022/05/09 01:00:18;;;;;;;14.88;4.30;;;;;;;;;;4938592;29;20047;-90
2022/05/09 01:02:48;;;;;;;13.13;4.00;;;;;;;;;;4937951;29;20043;-91
2022/05/09 01:05:15;;;;;;;16.02;4.07;;;;;;;;;;4954153;28;20510;-91
2022/05/09 01:07:44;;;;;;;15.52;4.25;;;;;;;;;;4954175;29;20483;-91
2022/05/09 01:10:11;;;;;;;13.55;4.20;;;;;;;;;;4954630;29;20042;-91
2022/05/09 01:12:39;;;;;;;15.38;4.10;;;;;;;;;;4938000;29;20039;-91
2022/05/09 01:15:09;;;;;;;12.48;4.22;;;;;;;;;;4937994;29;20039;-91
2022/05/09 01:17:39;;;;;;;12.23;3.97;;;;;;;;;;4938221;29;20035;-91
2022/05/09 01:20:07;;;;;;;17.20;4.50;;;;;;;;;;4938266;29;20047;-90
2022/05/09 01:22:35;;;;;;;10.45;3.90;;;;;;;;;;4937969;29;20387;-92
2022/05/09 01:25:06;;;;;;;15.68;4.35;;;;;;;;;;4954886;28;20113;-91
2022/05/09 01:27:33;;;;;;;14.30;4.38;;;;;;;;;;4939423;28;20055;-90
2022/05/09 01:30:06;;;;;;;14.07;4.35;;;;;;;;;;4957403;28;20430;-91
2022/05/09 01:32:41;;;;;;;18.30;4.47;;;;;;;;;;4941307;28;20043;-91
2022/05/09 01:35:12;;;;;;;10.52;3.97;;;;;;;;;;4973571;28;20410;-91
2022/05/09 01:37:41;;;;;;;15.43;3.90;;;;;;;;;;4941193;28;20439;-91
2022/05/09 01:40:07;;;;;;;15.07;4.50;;;;;;;;;;4941297;28;20437;-92
2022/05/09 01:42:35;;;;;;;12.98;3.92;;;;;;;;;;4973420;28;20054;-94
2022/05/09 01:45:02;;;;;;;13.93;4.38;;;;;;;;;;4941358;28;20039;-92
2022/05/09 01:50:14;;;;;;;;;;;;;;;;;;4957714;28;20563;-92
2022/05/09 01:52:41;;;;;;;11.52;4.28;;;;;;;;;;4956930;28;20033;-91
2022/05/09 01:55:10;;;;;;;14.25;4.25;;;;;;;;;;4976109;28;20074;-92
2022/05/09 01:57:36;;;;;;;13.52;4.70;;;;;;;;;;4944320;28;20134;-91
2022/05/09 02:00:05;;;;;;;16.17;4.93;;;;;;;;;;4945508;28;20046;-92
2022/05/09 02:02:31;;;;;;;12.73;5.10;;;;;;;;;;4944549;28;20070;-91
2022/05/09 02:04:57;;;;;;;15.18;4.82;;;;;;;;;;4944587;28;20142;-92
2022/05/09 02:07:24;;;;;;;13.93;4.88;;;;;;;;;;4944613;28;20549;-93
2022/05/09 02:09:50;;;;;;;15.02;4.90;;;;;;;;;;4944531;28;20450;-89
2022/05/09 02:12:18;;;;;;;17.50;4.75;;;;;;;;;;4944331;28;20394;-92
2022/05/09 02:14:45;;;;;;;17.00;4.80;;;;;;;;;;4944561;28;20050;-92
2022/05/09 02:17:12;;;;;;;13.10;4.57;;;;;;;;;;4976475;28;20039;-92
2022/05/09 02:19:41;;;;;;;15.70;4.88;;;;;;;;;;4944997;28;20109;-91
2022/05/09 02:22:08;;;;;;;9.85;4.20;;;;;;;;;;4976699;28;20054;-91
2022/05/09 02:24:35;;;;;;;13.65;4.05;;;;;;;;;;4944226;28;20084;-91
2022/05/09 02:27:01;;;;;;;13.77;4.80;;;;;;;;;;4944411;28;20057;-92
2022/05/09 02:29:31;;;;;;;12.82;4.18;;;;;;;;;;4944406;28;20051;-93
2022/05/09 02:31:57;;;;;;;14.70;4.55;;;;;;;;;;4944105;28;20498;-92
2022/05/09 02:34:23;;;;;;;15.68;5.03;;;;;;;;;;4943922;28;20102;-93
2022/05/09 02:36:49;;;;;;;13.57;4.85;;;;;;;;;;4944037;28;20038;-91
2022/05/09 02:39:15;;;;;;;13.60;4.60;;;;;;;;;;4943837;28;20078;-92
2022/05/09 02:41:42;;;;;;;14.90;4.38;;;;;;;;;;4976389;28;20102;-91
2022/05/09 02:44:12;;;;;;;15.70;4.47;;;;;;;;;;4975880;28;20478;-91
2022/05/09 02:46:42;;;;;;;19.08;5.53;;;;;;;;;;4943936;28;20238;-92
2022/05/09 02:49:11;;;;;;;15.70;4.28;;;;;;;;;;4959583;28;20402;-91
2022/05/09 02:51:38;;;;;;;14.48;4.63;;;;;;;;;;4944132;28;20074;-91
2022/05/09 02:54:07;;;;;;;14.75;5.43;;;;;;;;;;4959553;28;20066;-90
2022/05/09 02:56:33;;;;;;;13.50;4.75;;;;;;;;;;4943658;28;20058;-92
2022/05/09 02:58:59;;;;;;;14.85;4.82;;;;;;;;;;4975545;28;20039;-92
2022/05/09 03:01:25;;;;;;;14.52;4.32;;;;;;;;;;4943697;28;20503;-91
2022/05/09 03:06:36;;;;;;;16.45;5.15;;;;;;;;;;4958406;28;20555;-90
2022/05/09 03:09:02;;;;;;;12.95;4.38;;;;;;;;;;4943186;28;20042;-90
2022/05/09 03:11:30;;;;;;;14.10;4.95;;;;;;;;;;4975484;28;20042;-90
2022/05/09 03:13:56;;;;;;;20.30;7.47;;;;;;;;;;4975287;28;20043;-90
2022/05/09 03:16:22;;;;;;;16.75;6.70;;;;;;;;;;4975226;28;20131;-90
2022/05/09 03:18:49;;;;;;;14.02;4.90;;;;;;;;;;4974847;28;20046;-91
2022/05/09 03:21:15;;;;;;;13.13;4.82;;;;;;;;;;4943156;28;20130;-91
2022/05/09 03:23:41;;;;;;;14.55;4.93;;;;;;;;;;4975005;28;20128;-93
2022/05/09 03:26:11;;;;;;;17.15;5.63;;;;;;;;;;4974902;28;20047;-93
2022/05/09 03:28:37;;;;;;;16.88;4.82;;;;;;;;;;4942632;28;20055;-92
2022/05/09 03:31:04;;;;;;;18.20;5.82;;;;;;;;;;4943226;28;20049;-92
2022/05/09 03:33:30;;;;;;;15.45;5.68;;;;;;;;;;4942872;28;20046;-92
2022/05/09 03:35:59;;;;;;;16.13;5.78;;;;;;;;;;4942922;28;20549;-92
2022/05/09 03:38:25;;;;;;;14.65;5.80;;;;;;;;;;4942715;28;20053;-94
2022/05/09 03:40:51;;;;;;;15.77;5.28;;;;;;;;;;4942868;28;20042;-92
2022/05/09 03:43:17;;;;;;;14.10;5.07;;;;;;;;;;4942899;28;20097;-91
2022/05/09 03:45:47;;;;;;;15.80;4.38;;;;;;;;;;4943045;28;20486;-92
2022/05/09 03:48:13;;;;;;;11.30;3.30;;;;;;;;;;4942731;28;20130;-91
2022/05/09 03:50:45;;;;;;;8.00;3.15;;;;;;;;;;4943090;28;20126;-90
2022/05/09 03:53:12;;;;;;;8.10;2.90;;;;;;;;;;4926862;28;20497;-91
2022/05/09 03:55:39;;;;;;;5.93;2.97;;;;;;;;;;4942506;28;20049;-92
2022/05/09 03:58:05;;;;;;;8.45;2.95;;;;;;;;;;4942866;28;20521;-91
2022/05/09 04:00:33;;;;;;;12.82;4.43;;;;;;;;;;4942417;28;20043;-90
2022/05/09 04:02:59;;;;;;;15.45;4.22;;;;;;;;;;4927233;28;20069;-93
2022/05/09 04:05:30;;;;;;;14.18;4.60;;;;;;;;;;4942503;28;20039;-92
2022/05/09 04:07:57;;;;;;;9.98;4.10;;;;;;;;;;4942831;28;20043;-92
2022/05/09 04:10:27;;;;;;;8.13;3.60;;;;;;;;;;4942443;28;20053;-92
2022/05/09 04:12:57;;;;;;;9.18;4.35;;;;;;;;;;4942605;28;20035;-92
2022/05/09 04:18:10;;;;;;;11.10;4.70;;;;;;;;;;4958472;28;20046;-95
2022/05/09 04:20:36;;;;;;;11.45;4.53;;;;;;;;;;4942142;28;20042;-92
2022/05/09 04:23:03;;;;;;;11.48;4.32;;;;;;;;;;4942027;28;20098;-91
2022/05/09 04:25:31;;;;;;;8.18;4.28;;;;;;;;;;4941788;28;20050;-92
2022/05/09 04:28:03;;;;;;;8.73;4.25;;;;;;;;;;4942199;28;20057;-91
2022/05/09 04:30:30;;;;;;;10.48;3.72;;;;;;;;;;4974024;28;20414;-90
2022/05/09 04:32:57;;;;;;;7.85;3.67;;;;;;;;;;4941696;28;20121;-90
2022/05/09 04:35:24;;;;;;;9.48;3.80;;;;;;;;;;4973429;28;20383;-91
2022/05/09 04:37:52;;;;;;;7.93;3.92;;;;;;;;;;4941979;28;20051;-92
2022/05/09 04:40:22;;;;;;;7.82;3.83;;;;;;;;;;4941829;28;20051;-90
2022/05/09 04:42:48;;;;;;;7.63;3.45;;;;;;;;;;4941914;28;20395;-89
2022/05/09 04:45:15;;;;;;;8.02;3.88;;;;;;;;;;4941336;28;20418;-90
2022/05/09 04:47:43;;;;;;;11.55;4.00;;;;;;;;;;4941905;28;20142;-89
2022/05/09 04:50:12;;;;;;;14.88;4.65;;;;;;;;;;4973482;28;20071;-91
2022/05/09 04:52:38;;;;;;;11.10;4.65;;;;;;;;;;4941666;28;20054;-93
2022/05/09 04:55:05;;;;;;;13.30;5.05;;;;;;;;;;4957506;28;20066;-91
2022/05/09 04:57:31;;;;;;;10.65;4.32;;;;;;;;;;4941803;28;20050;-93
2022/05/09 04:59:58;;;;;;;11.13;4.43;;;;;;;;;;4942074;28;20094;-92
2022/05/09 05:02:25;;;;;;;11.30;5.20;;;;;;;;;;4941805;28;20039;-92
2022/05/09 05:04:51;;;;;;;16.98;5.47;;;;;;;;;;4941384;28;20093;-92
2022/05/09 05:07:18;;;;;;;15.77;5.90;;;;;;;;;;4941551;28;20490;-91
2022/05/09 05:09:45;;;;;;;14.57;5.63;;;;;;;;;;4973696;28;20038;-92
2022/05/09 05:12:14;;;;;;;10.98;5.07;;;;;;;;;;4973458;28;20139;-92
2022/05/09 05:14:40;;;;;;;12.00;5.00;;;;;;;;;;4973515;28;20062;-91
2022/05/09 05:17:07;;;;;;;12.35;5.65;;;;;;;;;;4957530;28;20050;-92
2022/05/09 05:19:37;;;;;;;17.83;6.25;;;;;;;;;;4941479;28;20053;-93
2022/05/09 05:22:04;;;;;;;14.45;5.68;;;;;;;;;;4942122;28;20047;-93
2022/05/09 05:24:33;;;;;;;20.67;6.80;;;;;;;;;;4941220;28;20107;-93
2022/05/09 05:26:59;;;;;;;18.38;6.88;;;;;;;;;;4973607;28;20389;-92
2022/05/09 05:29:28;;;;;;;23.90;6.05;;;;;;;;;;4976590;28;20077;-93
2022/05/09 05:31:55;;;;;;;18.25;7.03;;;;;;;;;;4945360;28;20043;-92
2022/05/09 05:34:23;;;;;;;16.30;5.72;;;;;;;;;;4977129;28;20137;-92
2022/05/09 05:36:50;;;;;;;12.73;5.75;;;;;;;;;;4945209;28;20122;-92
2022/05/09 05:39:17;;;;;;;24.17;6.78;;;;;;;;;;4944848;28;20129;-91
2022/05/09 05:41:44;;;;;;;18.77;6.25;;;;;;;;;;4945075;28;20042;-92
2022/05/09 05:44:11;;;;;;;20.65;7.20;;;;;;;;;;4944863;28;20138;-90
2022/05/09 05:46:43;;;;;;;18.83;6.65;;;;;;;;;;4944864;28;20081;-92
2022/05/09 05:49:12;;;;;;;28.10;6.53;;;;;;;;;;4944766;28;20066;-91
2022/05/09 05:51:41;;;;;;;23.20;7.50;;;;;;;;;;4945086;28;20363;-89
2022/05/09 05:54:07;;;;;;;16.85;7.28;;;;;;;;;;4945079;28;20034;-92
2022/05/09 05:56:36;;;;;;;14.60;6.60;;;;;;;;;;4944667;28;20489;-91
2022/05/09 05:59:02;;;;;;;19.90;6.72;;;;;;;;;;4944739;28;20101;-90
2022/05/09 06:01:28;;;;;;;21.88;6.95;;;;;;;;;;4944211;28;20051;-91
2022/05/09 06:03:55;;;;;;;20.50;7.05;;;;;;;;;;4960728;28;20490;-92
2022/05/09 06:06:21;;;;;;;22.83;7.00;;;;;;;;;;4944438;28;20053;-93
2022/05/09 06:08:51;;;;;;;17.25;7.35;;;;;;;;;;4976674;28;20065;-92
2022/05/09 06:11:17;;;;;;;18.60;6.82;;;;;;;;;;4944726;28;20131;-90
2022/05/09 06:13:43;;;;;;;21.33;6.68;;;;;;;;;;4944761;28;20456;-89
2022/05/09 06:16:10;;;;;;;18.98;7.65;;;;;;;;;;4944024;28;20129;-89
2022/05/09 06:18:36;;;;;;;19.92;6.47;;;;;;;;;;4944135;28;20042;-90
2022/05/09 06:21:03;;;;;;;16.77;6.50;;;;;;;;;;4933890;29;20475;-90
2022/05/09 06:23:29;;;;;;;19.02;6.53;;;;;;;;;;4946895;29;20451;-95
2022/05/09 06:26:00;;;;;;;16.38;6.68;;;;;;;;;;5002679;23;20552;-90
2022/05/09 06:28:26;;;;;;;18.30;6.53;;;;;;;;;;4960903;28;20414;-93
2022/05/09 06:30:53;;;;;;;18.83;7.68;;;;;;;;;;4946967;28;20062;-92
2022/05/09 06:33:22;;;;;;;18.05;6.78;;;;;;;;;;4907764;29;20055;-92
2022/05/09 06:35:49;;;;;;;16.77;6.22;;;;;;;;;;4919508;29;20052;-93
2022/05/09 06:38:37;;;;;;;20.02;6.40;;;;;;;;;;4905743;29;20051;-95
2022/05/09 06:41:10;;;;;;;20.13;6.28;;;;;;;;;;4911365;29;20090;-95
2022/05/09 06:43:42;;;;;;;19.15;6.18;;;;;;;;;;4905452;29;20498;-94
2022/05/09 06:48:42;;;;;;;18.33;5.68;;;;;;;;;;4956770;28;20403;-91
2022/05/09 06:51:08;;;;;;;16.90;5.35;;;;;;;;;;4940011;29;20042;-91
2022/05/09 06:53:34;;;;;;;15.73;5.05;;;;;;;;;;4940842;29;20039;-91
2022/05/09 06:56:00;;;;;;;15.75;5.82;;;;;;;;;;4940278;29;20395;-94
2022/05/09 06:58:26;;;;;;;15.30;5.22;;;;;;;;;;4925269;29;20110;-92
2022/05/09 07:00:53;;;;;;;15.38;4.65;;;;;;;;;;4925488;29;20442;-92
2022/05/09 07:03:20;;;;;;;15.35;5.35;;;;;;;;;;4924978;29;20106;-92
2022/05/09 07:05:48;;;;;;;15.48;5.43;;;;;;;;;;4924430;29;20047;-93
2022/05/09 07:08:14;;;;;;;17.90;5.22;;;;;;;;;;4924422;29;20082;-93
2022/05/09 07:10:40;;;;;;;18.58;5.90;;;;;;;;;;4924427;29;20040;-93
2022/05/09 07:13:07;;;;;;;15.65;5.25;;;;;;;;;;4939958;29;20051;-89
2022/05/09 07:15:33;;;;;;;16.63;5.57;;;;;;;;;;4939609;29;20047;-89
2022/05/09 07:18:00;;;;;;;13.52;5.68;;;;;;;;;;4940474;29;20134;-89
2022/05/09 07:20:27;;;;;;;15.90;5.93;;;;;;;;;;4925327;29;20043;-94
2022/05/09 07:22:57;;;;;;;17.25;5.78;;;;;;;;;;4910487;29;20047;-94
2022/05/09 07:25:24;;;;;;;21.50;4.85;;;;;;;;;;4925800;29;20047;-94
2022/05/09 07:27:51;;;;;;;12.20;4.85;;;;;;;;;;4926477;29;20050;-93
2022/05/09 07:30:28;;;;;;;15.60;5.05;;;;;;;;;;4926066;29;20085;-95
2022/05/09 07:32:55;;;;;;;13.13;5.18;;;;;;;;;;4940952;29;20380;-96
2022/05/09 07:35:46;;;;;;;13.55;5.25;;;;;;;;;;4927938;29;20047;-95
2022/05/09 07:38:21;;;;;;;15.98;5.60;;;;;;;;;;4926341;29;20051;-92
2022/05/09 07:48:35;;;;;;;15.80;5.80;;;;;;;;;;5403457;23;20117;-93
2022/05/09 07:51:15;;;;;;;14.27;5.22;;;;;;;;;;4986937;28;20039;-93
2022/05/09 08:04:00;;;;;;;12.38;4.63;;;;;;;;;;4959350;28;20044;-92
2022/05/09 08:06:27;;;;;;;13.52;4.78;;;;;;;;;;4939274;29;20043;-90
2022/05/09 08:08:53;;;;;;;15.32;5.85;;;;;;;;;;4940403;29;20039;-89
2022/05/09 08:11:38;;;;;;;16.42;5.25;;;;;;;;;;4926897;29;20083;-96
2022/05/09 08:14:05;;;;;;;14.98;5.13;;;;;;;;;;4923992;29;20549;-94
2022/05/09 08:16:31;;;;;;;13.48;5.65;;;;;;;;;;4907144;29;20095;-92
2022/05/09 08:19:03;;;;;;;13.88;4.80;;;;;;;;;;4925007;29;20141;-93
2022/05/09 08:21:29;;;;;;;12.43;5.35;;;;;;;;;;4939377;29;20050;-91
2022/05/09 08:23:56;;;;;;;14.48;6.00;;;;;;;;;;4923442;29;20039;-91
2022/05/09 08:26:22;;;;;;;21.35;5.30;;;;;;;;;;4923219;29;20047;-93
2022/05/09 08:28:49;;;;;;;15.85;5.68;;;;;;;;;;4940005;29;20061;-91
2022/05/09 08:31:18;;;;;;;13.93;4.97;;;;;;;;;;4946814;28;20054;-92
2022/05/09 08:33:46;;;;;;;14.52;5.15;;;;;;;;;;4947464;28;20031;-92
2022/05/09 08:36:12;;;;;;;14.88;5.00;;;;;;;;;;4946547;28;20055;-92
2022/05/09 08:38:41;;;;;;;17.27;5.47;;;;;;;;;;4947427;28;20035;-91
2022/05/09 08:41:08;;;;;;;14.60;5.38;;;;;;;;;;4947445;28;20039;-90
2022/05/09 08:43:55;;;;;;;15.13;5.13;;;;;;;;;;4963327;28;20032;-91
2022/05/09 08:46:40;;;;;;;11.68;4.70;;;;;;;;;;4947072;28;20054;-90
2022/05/09 08:49:25;;;;;;;12.07;5.18;;;;;;;;;;4963007;28;20041;-92
2022/05/09 08:51:56;;;;;;;17.83;4.93;;;;;;;;;;4963102;28;20039;-91
2022/05/09 08:54:23;;;;;;;20.50;5.43;;;;;;;;;;4947280;28;20079;-91
2022/05/09 08:56:53;;;;;;;10.75;4.35;;;;;;;;;;4947144;28;20035;-91
2022/05/09 08:59:24;;;;;;;12.52;5.10;;;;;;;;;;4947179;28;20058;-91
2022/05/09 09:01:52;;;;;;;12.32;4.25;;;;;;;;;;4947088;28;20039;-92
2022/05/09 09:04:26;;;;;;;12.63;3.80;;;;;;;;;;4939627;29;20047;-92
2022/05/09 09:06:52;;;;;;;12.93;4.20;;;;;;;;;;4922329;29;20063;-91
2022/05/09 09:09:47;;;;;;;12.88;3.53;;;;;;;;;;4940359;29;20036;-92
2022/05/09 09:12:32;;;;;;;12.05;3.65;;;;;;;;;;4891455;29;20099;-88
2022/05/09 09:15:07;;;;;;;13.45;4.05;;;;;;;;;;4921980;29;20036;-94
2022/05/09 09:17:33;;;;;;;10.82;3.85;;;;;;;;;;4934392;29;20364;-90
2022/05/09 09:19:59;;;;;;;12.55;3.60;;;;;;;;;;4920314;29;20035;-92
2022/05/09 09:22:31;;;;;;;11.80;3.58;;;;;;;;;;4917370;29;20046;-88
2022/05/09 09:25:16;;;;;;;11.90;3.42;;;;;;;;;;4929842;29;20040;-90
2022/05/09 09:27:42;;;;;;;9.75;3.53;;;;;;;;;;4934576;29;20032;-88
2022/05/09 09:30:11;;;;;;;11.23;3.92;;;;;;;;;;4930564;29;20107;-89
2022/05/09 09:32:42;;;;;;;12.57;3.65;;;;;;;;;;4922808;29;20040;-88
2022/05/09 09:35:18;;;;;;;12.35;3.45;;;;;;;;;;4899775;29;20056;-88
2022/05/09 09:37:52;;;;;;;9.05;3.10;;;;;;;;;;4915809;29;20395;-90
2022/05/09 09:40:18;;;;;;;11.90;4.30;;;;;;;;;;4915853;29;20130;-89
2022/05/09 09:42:44;;;;;;;10.10;4.03;;;;;;;;;;4899967;29;20048;-89
2022/05/09 09:45:29;;;;;;;11.65;3.38;;;;;;;;;;4899638;29;20051;-90
2022/05/09 09:48:12;;;;;;;9.48;3.35;;;;;;;;;;4899264;29;20068;-89
2022/05/09 09:50:52;;;;;;;12.95;4.07;;;;;;;;;;4915624;29;20044;-91
2022/05/09 09:53:36;;;;;;;10.35;3.60;;;;;;;;;;4900195;29;20040;-90
2022/05/09 09:56:07;;;;;;;11.00;3.95;;;;;;;;;;4915857;29;20134;-89
2022/05/09 09:58:38;;;;;;;11.40;3.92;;;;;;;;;;4900303;29;20396;-89
2022/05/09 10:01:21;;;;;;;12.30;4.60;;;;;;;;;;4901339;29;20195;-89
2022/05/09 10:04:03;;;;;;;13.05;3.92;;;;;;;;;;4930945;29;20051;-89
2022/05/09 10:06:30;;;;;;;10.40;3.55;;;;;;;;;;4934803;29;20522;-89
2022/05/09 10:09:06;;;;;;;11.55;3.95;;;;;;;;;;4919419;29;20080;-90
2022/05/09 10:11:33;;;;;;;11.73;3.53;;;;;;;;;;4918932;29;20039;-91
2022/05/09 10:14:00;;;;;;;10.23;3.13;;;;;;;;;;4918617;29;20053;-90
2022/05/09 10:16:45;;;;;;;7.72;3.17;;;;;;;;;;4939147;29;20079;-89
2022/05/09 10:19:27;;;;;;;11.35;2.83;;;;;;;;;;4937805;29;20134;-88
2022/05/09 10:25:33;;;;;;;11.23;3.28;;;;;;;;;;4913957;29;20127;-90
2022/05/09 10:28:06;;;;;;;9.15;3.13;;;;;;;;;;4937804;29;20095;-89
2022/05/09 10:30:36;;;;;;;10.05;2.70;;;;;;;;;;4938865;29;20048;-87
2022/05/09 10:33:09;;;;;;;8.43;2.85;;;;;;;;;;4938040;29;20461;-88
2022/05/09 10:35:35;;;;;;;10.02;2.65;;;;;;;;;;4937771;29;20048;-90
2022/05/09 10:38:02;;;;;;;11.68;3.15;;;;;;;;;;4937650;29;20043;-88
2022/05/09 10:40:42;;;;;;;13.30;2.95;;;;;;;;;;4921770;29;20127;-88
2022/05/09 10:43:12;;;;;;;9.18;2.65;;;;;;;;;;4935428;29;20104;-90
2022/05/09 10:45:44;;;;;;;11.13;2.40;;;;;;;;;;4928072;29;20048;-89
2022/05/09 10:48:13;;;;;;;11.68;3.00;;;;;;;;;;4919416;29;20480;-89
2022/05/09 10:50:58;;;;;;;9.63;2.28;;;;;;;;;;4918254;29;20043;-88
2022/05/09 10:53:24;;;;;;;;;;;;;;;;;;4918602;29;20130;-89
2022/05/09 10:55:50;;;;;;;;;;;;;;;;;;4918486;29;20005;-89
2022/05/09 10:58:16;;;;;;;;;;;;;;;;;;4918794;29;19919;-88
2022/05/09 11:00:42;;;;;;;;;;;;;;;;;;4918691;29;19919;-88
2022/05/09 11:03:11;;;;;;;;;;;;;;;;;;4918208;29;19923;-91
2022/05/09 11:05:49;;;;;;;8.40;2.13;;;;;;;;;;4917670;29;19926;-88
2022/05/09 11:08:29;;;;;;;8.63;2.25;;;;;;;;;;4917708;29;20123;-87
2022/05/09 11:11:00;;;;;;;9.52;2.58;;;;;;;;;;4917971;29;20048;-88
2022/05/09 11:13:30;;;;;;;7.68;1.92;;;;;;;;;;4902200;29;20055;-88
2022/05/09 11:16:02;;;;;;;11.52;2.35;;;;;;;;;;4917784;29;20399;-89
2022/05/09 11:18:42;;;;;;;7.60;2.35;;;;;;;;;;4901867;29;20146;-89
2022/05/09 11:21:23;;;;;;;9.02;1.85;;;;;;;;;;4917817;29;20055;-90
2022/05/09 11:23:54;;;;;;;8.80;2.63;;;;;;;;;;4901541;29;20100;-89
2022/05/09 11:26:39;;;;;;;12.02;2.40;;;;;;;;;;4916723;29;20044;-90
2022/05/09 11:29:14;;;;;;;9.05;2.78;;;;;;;;;;4901463;29;20036;-87
2022/05/09 11:31:52;;;;;;;8.60;2.67;;;;;;;;;;4917361;29;20040;-89
2022/05/09 11:34:18;;;;;;;9.85;2.50;;;;;;;;;;4917253;29;20044;-89
2022/05/09 11:36:50;;;;;;;8.93;2.50;;;;;;;;;;4917529;29;20043;-89
2022/05/09 11:39:36;;;;;;;12.07;2.35;;;;;;;;;;4917636;29;20142;-90
2022/05/09 11:45:05;;;;;;;10.57;3.10;;;;;;;;;;4916795;29;20044;-91
2022/05/09 11:47:35;;;;;;;10.40;2.25;;;;;;;;;;4917042;29;20123;-90
2022/05/09 11:50:08;;;;;;;13.13;2.33;;;;;;;;;;4901263;29;20127;-89
2022/05/09 11:52:42;;;;;;;8.50;2.53;;;;;;;;;;4917001;29;20043;-88
2022/05/09 11:55:13;;;;;;;8.40;2.10;;;;;;;;;;4917009;29;20484;-89
2022/05/09 11:57:41;;;;;;;10.50;2.35;;;;;;;;;;4917504;29;20054;-88
2022/05/09 12:00:10;;;;;;;60.28;5.25;;;;;;;;;;4917353;29;20088;-89
2022/05/09 12:02:42;;;;;;;8.45;2.28;;;;;;;;;;4901534;29;20108;-94
2022/05/09 12:05:26;;;;;;;10.05;2.70;;;;;;;;;;4916679;29;20127;-91
2022/05/09 12:08:05;;;;;;;11.07;2.60;;;;;;;;;;4901172;29;20040;-89
2022/05/09 12:10:32;;;;;;;10.68;2.28;;;;;;;;;;4900917;29;20192;-87
2022/05/09 12:13:00;;;;;;;8.02;2.50;;;;;;;;;;4901025;29;20108;-89
2022/05/09 12:15:29;;;;;;;9.45;2.78;;;;;;;;;;4916469;29;20055;-87
2022/05/09 12:17:58;;;;;;;10.15;2.63;;;;;;;;;;4901130;29;20058;-89
2022/05/09 12:20:27;;;;;;;6.75;1.95;;;;;;;;;;4916620;29;20453;-89
2022/05/09 12:23:02;;;;;;;6.78;2.10;;;;;;;;;;4901212;29;20134;-91
2022/05/09 12:25:34;;;;;;;6.53;2.17;;;;;;;;;;4900408;29;20616;-89
2022/05/09 12:28:18;;;;;;;8.88;2.28;;;;;;;;;;4900848;29;20093;-87
2022/05/09 12:30:46;;;;;;;7.75;2.10;;;;;;;;;;4916448;29;20475;-87
2022/05/09 12:33:18;;;;;;;6.75;1.98;;;;;;;;;;4916421;29;20172;-88
2022/05/09 12:35:46;;;;;;;8.15;2.15;;;;;;;;;;4916672;29;20051;-89
2022/05/09 12:38:13;;;;;;;9.23;2.30;;;;;;;;;;4915196;29;20055;-87
2022/05/09 12:40:39;;;;;;;8.98;1.90;;;;;;;;;;4916184;29;20047;-87
2022/05/09 12:43:07;;;;;;;8.35;2.03;;;;;;;;;;4916736;29;20134;-91
2022/05/09 12:45:33;;;;;;;6.80;1.75;;;;;;;;;;4916551;29;20044;-90
2022/05/09 12:48:01;;;;;;;9.32;2.38;;;;;;;;;;4900037;29;20044;-89
2022/05/09 12:50:35;;;;;;;5.32;2.22;;;;;;;;;;4900074;29;20075;-89
2022/05/09 12:53:05;;;;;;;8.13;1.90;;;;;;;;;;4900273;29;20506;-87
2022/05/09 12:58:24;;;;;;;5.68;1.83;;;;;;;;;;4916067;29;20484;-88
2022/05/09 13:00:54;;;;;;;5.40;2.45;;;;;;;;;;4915912;29;20050;-90
2022/05/09 13:03:20;;;;;;;10.85;2.08;;;;;;;;;;4928468;29;20407;-88
2022/05/09 13:05:46;;;;;;;9.98;2.28;;;;;;;;;;4918628;29;20056;-89
2022/05/09 13:08:14;;;;;;;7.78;2.08;;;;;;;;;;4919069;29;20044;-88
2022/05/09 13:10:45;;;;;;;9.70;2.15;;;;;;;;;;4919157;29;20065;-88
2022/05/09 13:13:16;;;;;;;9.05;2.10;;;;;;;;;;4919001;29;20043;-90
2022/05/09 13:15:43;;;;;;;8.95;2.72;;;;;;;;;;4918812;29;20483;-89
2022/05/09 13:18:12;;;;;;;8.27;1.83;;;;;;;;;;4918809;29;20055;-90
2022/05/09 13:20:47;;;;;;;9.00;2.20;;;;;;;;;;4918628;29;20047;-87
2022/05/09 13:23:13;;;;;;;;;;;;;;;;;;4919554;29;20050;-88
2022/05/09 13:25:51;;;;;;;9.50;2.22;;;;;;;;;;4918514;29;20047;-88
2022/05/09 13:28:19;;;;;;;9.93;2.40;;;;;;;;;;4918817;29;20054;-88
2022/05/09 13:30:54;;;;;;;21.73;3.00;;;;;;;;;;4918683;29;20091;-87
2022/05/09 13:33:22;;;;;;;7.50;2.10;;;;;;;;;;4918759;29;20068;-87
2022/05/09 13:35:50;;;;;;;8.50;2.30;;;;;;;;;;4918446;29;20055;-89
2022/05/09 13:38:24;;;;;;;8.07;2.30;;;;;;;;;;4919020;29;20160;-88
2022/05/09 13:40:51;;;;;;;7.85;2.13;;;;;;;;;;4902839;29;20507;-89
2022/05/09 13:43:40;;;;;;;6.55;1.58;;;;;;;;;;4918666;29;20514;-85
2022/05/09 13:46:20;;;;;;;10.40;2.65;;;;;;;;;;4935334;29;20127;-85
2022/05/09 13:48:56;;;;;;;10.52;2.00;;;;;;;;;;4935854;29;20103;-89
2022/05/09 13:51:28;;;;;;;9.15;2.50;;;;;;;;;;4922121;29;20040;-87
2022/05/09 13:53:56;;;;;;;8.05;2.30;;;;;;;;;;4922631;29;20078;-86
2022/05/09 13:56:24;;;;;;;8.02;2.30;;;;;;;;;;4922128;29;20062;-86
2022/05/09 13:58:51;;;;;;;8.75;1.88;;;;;;;;;;4937951;29;20051;-87
2022/05/09 14:01:17;;;;;;;8.00;2.25;;;;;;;;;;4921743;29;20562;-87
2022/05/09 14:03:44;;;;;;;10.65;2.40;;;;;;;;;;4939375;29;20056;-88
2022/05/09 14:06:12;;;;;;;8.32;2.20;;;;;;;;;;4921589;29;20055;-87
2022/05/09 14:08:41;;;;;;;8.88;2.28;;;;;;;;;;4922024;29;20036;-86
2022/05/09 14:11:11;;;;;;;5.53;1.95;;;;;;;;;;4922015;29;20123;-87
2022/05/09 14:13:45;;;;;;;8.55;2.20;;;;;;;;;;4922035;29;20051;-89
2022/05/09 14:16:31;;;;;;;10.32;2.65;;;;;;;;;;4921753;29;20597;-88
2022/05/09 14:19:07;;;;;;;8.55;1.92;;;;;;;;;;4905817;29;20175;-88
2022/05/09 14:21:57;;;;;;;6.32;2.28;;;;;;;;;;4921727;29;20056;-88
2022/05/09 14:24:26;;;;;;;8.50;1.77;;;;;;;;;;4921683;29;20056;-91
2022/05/09 14:29:49;;;;;;;8.65;1.88;;;;;;;;;;4921728;29;20086;-91
2022/05/09 14:32:37;;;;;;;9.45;2.33;;;;;;;;;;4905862;29;20040;-90
2022/05/09 14:35:03;;;;;;;7.35;1.90;;;;;;;;;;4918662;29;20146;-90
2022/05/09 14:37:33;;;;;;;8.65;2.17;;;;;;;;;;4921762;29;20511;-90
2022/05/09 14:39:59;;;;;;;8.10;1.92;;;;;;;;;;4921946;29;20051;-90
2022/05/09 14:42:32;;;;;;;9.02;2.20;;;;;;;;;;4938386;29;20044;-88
2022/05/09 14:45:04;;;;;;;8.15;1.98;;;;;;;;;;4938770;29;20079;-89
2022/05/09 14:47:35;;;;;;;7.88;2.03;;;;;;;;;;4921598;29;20059;-88
2022/05/09 14:50:17;;;;;;;8.93;1.90;;;;;;;;;;4921398;29;20049;-86
2022/05/09 14:52:43;;;;;;;8.45;1.98;;;;;;;;;;4921620;29;20043;-87
2022/05/09 14:58:15;;;;;;;9.95;2.13;;;;;;;;;;4921077;29;20055;-87
2022/05/09 15:00:42;;;;;;;8.55;2.00;;;;;;;;;;4921136;29;20506;-89
2022/05/09 15:03:17;;;;;;;9.07;1.83;;;;;;;;;;4901187;29;20067;-88
2022/05/09 15:05:43;;;;;;;7.37;1.73;;;;;;;;;;4917938;29;20048;-87
2022/05/09 15:08:12;;;;;;;9.85;1.50;;;;;;;;;;4917704;29;20044;-88
2022/05/09 15:10:41;;;;;;;5.07;1.98;;;;;;;;;;4918125;29;20123;-86
2022/05/09 15:13:08;;;;;;;6.90;1.70;;;;;;;;;;4917609;29;20175;-87
2022/05/09 15:15:34;;;;;;;8.23;1.95;;;;;;;;;;4918951;29;20051;-87
2022/05/09 15:18:00;;;;;;;6.32;1.80;;;;;;;;;;4917611;29;20040;-86
2022/05/09 15:20:28;;;;;;;8.15;1.60;;;;;;;;;;4917975;29;20048;-88
2022/05/09 15:22:57;;;;;;;7.88;1.77;;;;;;;;;;4917361;29;20048;-91
2022/05/09 15:25:23;;;;;;;5.07;1.40;;;;;;;;;;4901671;29;20048;-89
2022/05/09 15:27:49;;;;;;;7.32;1.98;;;;;;;;;;4917420;29;20072;-89
2022/05/09 15:30:15;;;;;;;6.35;1.67;;;;;;;;;;4917708;29;20062;-87
2022/05/09 15:32:41;;;;;;;6.70;1.88;;;;;;;;;;4916856;29;20504;-89
2022/05/09 15:35:09;;;;;;;9.77;2.50;;;;;;;;;;4901638;29;20044;-89